• Join FlightAware (Why Join?)
  • Login
  • US Flag 
06:05PM EDT


 

Airport Tracker/Info


-or-


 

Live Flight TrackerFlight Track Log ✈ N785JP ✈ 27-Jun-2013 ✈ KSTE - KSYR

Flight Track Log - Related Links

Times and Time Zones

All times are in EDT time to prevent confusion due to time zone crossing. See the N785JP flight status page for this flight to view local times or setup timezone preferences in your user account.

Time Position Orientation Groundspeed Altitude Reporting Facility
EDT Latitude Longitude Course Direction KTS MPH feet Rate Location/Type
02:48PM 44.5033 -89.4122 111° Southeast 172 198 4,100  Level Minneapolis Center
02:49PM 44.4856 -89.3461 111° Southeast 178 205 5,200 1,080 Climbing Minneapolis Center
02:50PM 44.4619 -89.2789 116° Southeast 183 211 6,400 1,200 Climbing Minneapolis Center
02:51PM 44.4356 -89.2097 118° Southeast 191 220 7,700 1,200 Climbing Minneapolis Center
02:52PM 44.4106 -89.1394 116° Southeast 192 221 9,000 1,140 Climbing Minneapolis Center
02:53PM 44.3808 -89.0711 121° Southeast 196 226 10,100 960 Climbing Minneapolis Center
02:54PM 44.3542 -89.0164 124° Southeast 196 226 11,100 1,140 Climbing Minneapolis Center
02:55PM 44.3225 -88.9408 120° Southeast 192 221 12,500 1,140 Climbing Minneapolis Center
02:56PM 44.2936 -88.8742 121° Southeast 197 227 13,500 960 Climbing Minneapolis Center
02:57PM 44.2647 -88.8061 121° Southeast 201 231 14,600 900 Climbing Minneapolis Center
02:58PM 44.2347 -88.7358 121° Southeast 207 238 15,400 840 Climbing Minneapolis Center
02:59PM 44.2044 -88.6611 119° Southeast 216 249 16,400 1,020 Climbing Minneapolis Center
03:00PM 44.1683 -88.5764 121° Southeast 217 250 17,600 1,020 Climbing Minneapolis Center
03:01PM 44.1364 -88.5053 122° Southeast 217 250 18,600 780 Climbing Minneapolis Center
03:02PM 44.1047 -88.4308 121° Southeast 221 254 19,300 660 Climbing Minneapolis Center
03:03PM 44.0731 -88.3575 121° Southeast 221 254 20,000 600 Climbing Minneapolis Center
03:04PM 44.0358 -88.2697 121° Southeast 226 260 20,600 420 Climbing Chicago Center
03:06PM 44.0014 -88.1911 121° Southeast 235 270 21,000 180 Climbing Chicago Center
03:07PM 43.9633 -88.1061 122° Southeast 255 293 21,000  Level Chicago Center
03:08PM 43.9178 -88.0019 121° Southeast 267 307 21,000  Level Minneapolis Center
03:09PM 43.8789 -87.9131 121° Southeast 268 308 21,000  Level Minneapolis Center
03:10PM 43.8389 -87.8253 122° Southeast 268 308 21,000  Level Minneapolis Center
03:11PM 43.7953 -87.7233 121° Southeast 264 304 21,000  Level Minneapolis Center
03:12PM 43.7625 -87.6497 122° Southeast 268 308 21,000  Level Chicago Center
03:13PM 43.7239 -87.5631 122° Southeast 265 305 21,000  Level Chicago Center
03:14PM 43.6850 -87.4767 122° Southeast 263 303 21,000  Level Chicago Center
03:15PM 43.6461 -87.3919 122° Southeast 261 300 21,000  Level Chicago Center
03:16PM 43.6039 -87.2967 121° Southeast 262 302 21,000  Level Chicago Center
03:17PM 43.5658 -87.2136 122° Southeast 258 297 21,000  Level Chicago Center
03:18PM 43.5272 -87.1283 122° Southeast 262 302 21,000  Level Chicago Center
03:19PM 43.4889 -87.0433 122° Southeast 262 302 21,000  Level Chicago Center
03:20PM 43.4431 -86.9436 122° Southeast 257 296 21,000  Level Chicago Center
03:21PM 43.4047 -86.8600 122° Southeast 258 297 21,000  Level Chicago Center
03:22PM 43.3661 -86.7769 123° Southeast 258 297 21,000  Level Chicago Center
03:23PM 43.3281 -86.6939 122° Southeast 259 298 21,000  Level Chicago Center
03:24PM 43.2903 -86.6108 122° Southeast 258 297 21,000  Level Chicago Center
03:25PM 43.2514 -86.5269 122° Southeast 261 300 21,000  Level Chicago Center
03:26PM 43.2050 -86.4267 122° Southeast 261 300 21,000  Level Chicago Center
03:27PM 43.1667 -86.3442 122° Southeast 258 297 21,000  Level Chicago Center
03:28PM 43.1278 -86.2625 123° Southeast 258 297 21,000  Level Chicago Center
03:29PM 43.0892 -86.1806 123° Southeast 258 297 21,000  Level Chicago Center
03:30PM 43.0506 -86.0989 123° Southeast 258 297 21,000  Level Chicago Center
03:31PM 43.0033 -86.0033 124° Southeast 264 304 21,000  Level Chicago Center
03:32PM 42.9669 -85.9217 121° Southeast 261 300 21,000  Level Chicago Center
03:33PM 42.9286 -85.8397 123° Southeast 259 298 21,000  Level Chicago Center
03:35PM 42.8897 -85.7575 123° Southeast 259 298 21,000  Level Chicago Center
03:36PM 42.8428 -85.6594 123° Southeast 258 297 21,000  Level Chicago Center
03:37PM 42.8042 -85.5769 123° Southeast 259 298 21,000  Level Chicago Center
03:38PM 42.7658 -85.4964 123° Southeast 256 295 21,000  Level Chicago Center
03:39PM 42.7267 -85.4156 123° Southeast 256 295 21,000  Level Chicago Center
03:40PM 42.6878 -85.3347 123° Southeast 256 295 21,000  Level Chicago Center
03:41PM 42.6417 -85.2397 123° Southeast 252 290 21,000  Level Chicago Center
03:42PM 42.6031 -85.1592 123° Southeast 253 291 21,000  Level Chicago Center
03:43PM 42.5647 -85.0811 124° Southeast 251 289 21,000  Level Chicago Center
03:44PM 42.5194 -85.0078 130° Southeast 252 290 21,000  Level Chicago Center
03:45PM 42.4733 -84.9381 132° Southeast 250 288 21,000  Level Chicago Center
03:46PM 42.4278 -84.8675 131° Southeast 250 288 21,000  Level Chicago Center
03:47PM 42.3628 -84.8008 143° Southeast 243 280 21,000 60 Level Chicago Center
03:48PM 42.3025 -84.7567 152° Southeast 248 285 21,200 240 Climbing Chicago Center
03:49PM 42.2439 -84.7197 155° Southeast 238 274 21,600 360 Climbing Chicago Center
03:50PM 42.1861 -84.6839 155° Southeast 231 266 22,000 240 Climbing Chicago Center
03:51PM 42.1286 -84.6469 155° Southeast 228 262 22,200 360 Climbing Chicago Center
03:52PM 42.0722 -84.6019 149° Southeast 233 268 22,800 360 Climbing Chicago Center
03:53PM 42.0106 -84.5378 142° Southeast 234 269 23,000 60 Climbing Chicago Center
03:55PM 41.9153 -84.3981 132° Southeast 251 289 23,000  Level Cleveland Center
03:56PM 41.8636 -84.3225 133° Southeast 256 295 23,000  Level Cleveland Center
03:57PM 41.8056 -84.2439 135° Southeast 262 302 23,000  Level Cleveland Center
03:58PM 41.7661 -84.1692 125° Southeast 268 308 23,000  Level Cleveland Center
03:59PM 41.7314 -84.0836 119° Southeast 273 314 23,000  Level Cleveland Center
04:00PM 41.6986 -83.9928 116° Southeast 268 308 23,000  Level Cleveland Center
04:01PM 41.6700 -83.9025 113° Southeast 263 303 23,000  Level Cleveland Center
04:02PM 41.6581 -83.8100 100° East 258 297 23,000  Level Cleveland Center
04:03PM 41.6628 -83.7158 86° East 253 291 23,000  Level Cleveland Center
04:04PM 41.6881 -83.6308 68° East 248 285 23,000  Level Cleveland Center
04:05PM 41.7131 -83.5458 68° East 242 278 23,000  Level Cleveland Center
04:06PM 41.7361 -83.4606 70° East 242 278 23,000  Level Cleveland Center
04:07PM 41.7592 -83.3753 70° East 242 278 23,000  Level Cleveland Center
04:08PM 41.7822 -83.2872 71° East 242 278 23,000  Level Cleveland Center
04:09PM 41.8050 -83.2017 70° East 242 278 23,000  Level Cleveland Center
04:10PM 41.8297 -83.1164 69° East 242 278 23,000  Level Cleveland Center
04:11PM 41.8628 -83.0367 61° Northeast 242 278 23,000  Level Cleveland Center
04:12PM 41.8958 -82.9569 61° Northeast 237 273 23,000  Level Cleveland Center
04:13PM 41.9306 -82.8831 58° Northeast 237 273 23,000  Level Cleveland Center
04:14PM 41.9694 -82.8117 54° Northeast 237 273 23,000  Level Cleveland Center
04:15PM 41.9983 -82.7289 65° Northeast 232 267 23,000  Level Cleveland Center
04:16PM 42.0186 -82.6458 72° East 232 267 23,000  Level Cleveland Center
04:17PM 42.0389 -82.5597 72° East 232 267 23,000  Level Cleveland Center
04:18PM 42.0611 -82.4739 71° East 239 275 23,000  Level Cleveland Center
04:19PM 42.0833 -82.3819 72° East 244 281 23,000  Level Cleveland Center
04:20PM 42.1036 -82.2958 72° East 244 281 23,000  Level Cleveland Center
04:21PM 42.1256 -82.2097 71° East 244 281 23,000  Level Cleveland Center
04:22PM 42.1478 -82.1178 72° East 244 281 23,000  Level Cleveland Center
04:23PM 42.1694 -82.0400 69° East 239 275 23,000  Level Cleveland Center
04:24PM 42.1872 -81.9506 75° East 239 275 23,000  Level Cleveland Center
04:25PM 42.2114 -81.8642 69° East 239 275 23,000  Level Cleveland Center
04:26PM 42.2308 -81.7806 73° East 239 275 23,000  Level Cleveland Center
04:27PM 42.2528 -81.6939 71° East 239 275 23,000  Level Cleveland Center
04:28PM 42.2744 -81.5961 73° East 239 275 23,000  Level Cleveland Center
04:29PM 42.2961 -81.5067 72° East 239 275 23,000  Level Cleveland Center
04:30PM 42.3153 -81.4200 73° East 239 275 23,000  Level Cleveland Center
04:31PM 42.3347 -81.3331 73° East 244 281 23,000  Level Cleveland Center
04:32PM 42.3561 -81.2492 71° East 244 281 23,000  Level Cleveland Center
04:33PM 42.3753 -81.1622 73° East 239 275 23,000  Level Cleveland Center
04:34PM 42.3967 -81.0781 71° East 239 275 23,000  Level Cleveland Center
04:35PM 42.4158 -80.9939 73° East 237 273 23,000  Level Cleveland Center
04:36PM 42.4369 -80.9067 72° East 237 273 23,000  Level Cleveland Center
04:37PM 42.4558 -80.8253 73° East 243 280 23,000  Level Cleveland Center
04:38PM 42.4747 -80.7408 73° East 238 274 23,000  Level Cleveland Center
04:39PM 42.4936 -80.6536 74° East 238 274 23,000  Level Cleveland Center
04:40PM 42.5122 -80.5692 73° East 238 274 23,000  Level Cleveland Center
04:41PM 42.5331 -80.4817 72° East 244 281 23,000  Level Cleveland Center
04:42PM 42.5517 -80.3944 74° East 239 275 23,000 -120 Level Cleveland Center
04:43PM 42.5725 -80.3011 73° East 239 275 22,800 -360 Descending Cleveland Center
04:44PM 42.5908 -80.2081 75° East 244 281 22,300 -480 Descending Cleveland Center
04:45PM 42.6136 -80.1206 70° East 244 281 21,900 -480 Descending Cleveland Center
04:46PM 42.6339 -80.0244 74° East 244 281 21,400 -480 Descending Cleveland Center
04:47PM 42.6564 -79.9339 71° East 250 288 21,000 -480 Descending Cleveland Center
04:48PM 42.6789 -79.8406 72° East 250 288 20,500 -540 Descending Cleveland Center
04:49PM 42.6989 -79.7469 74° East 256 295 20,000 -540 Descending Cleveland Center
04:50PM 42.7192 -79.6506 74° East 256 295 19,500 -540 Descending Cleveland Center
04:51PM 42.7392 -79.5569 74° East 256 295 19,000 -300 Descending Cleveland Center
04:52PM 42.7569 -79.4661 75° East 256 295 19,000  Level Cleveland Center
04:53PM 42.7769 -79.3811 72° East 249 287 19,000  Level Cleveland Center
04:54PM 42.7947 -79.2958 74° East 234 269 19,000  Level Cleveland Center
04:55PM 42.8147 -79.2106 72° East 234 269 19,000  Level Cleveland Center
04:56PM 42.8283 -79.1225 78° East 234 269 19,000  Level Cleveland Center
04:57PM 42.8500 -79.0342 71° East 234 269 19,000  Level Cleveland Center
04:58PM 42.8675 -78.9458 75° East 234 269 19,000  Level Cleveland Center
04:59PM 42.8850 -78.8606 74° East 234 269 19,000  Level Cleveland Center
05:00PM 42.9025 -78.7750 74° East 234 269 19,000  Level Cleveland Center
05:01PM 42.9219 -78.6864 73° East 234 269 19,000  Level Cleveland Center
05:02PM 42.9350 -78.5981 79° East 234 269 19,000  Level Cleveland Center
05:03PM 42.9417 -78.5072 84° East 234 269 19,000  Level Cleveland Center
05:04PM 42.9483 -78.4161 84° East 240 276 19,000  Level Cleveland Center
05:05PM 42.9550 -78.3222 84° East 240 276 19,000  Level Cleveland Center
05:06PM 42.9614 -78.2314 84° East 235 270 19,000  Level Cleveland Center
05:07PM 42.9700 -78.1403 83° East 235 270 19,000  Level Cleveland Center
05:08PM 42.9786 -78.0519 82° East 235 270 19,000  Level Cleveland Center
05:09PM 42.9850 -77.9608 84° East 235 270 19,000 -60 Level Cleveland Center
05:10PM 42.9911 -77.8669 85° East 235 270 18,900 -780 Descending Cleveland Center
05:11PM 42.9972 -77.7700 85° East 241 277 17,500 -1,200 Descending Cleveland Center
05:12PM 43.0069 -77.6675 83° East 251 289 16,600 -840 Descending Cleveland Center
05:13PM 43.0128 -77.5678 85° East 257 296 15,900 -660 Descending Cleveland Center
05:14PM 43.0208 -77.4736 83° East 257 296 15,300 -660 Descending Cleveland Center
05:15PM 43.0264 -77.3739 86° East 257 296 14,600 -660 Descending Cleveland Center
05:16PM 43.0339 -77.2742 84° East 257 296 14,000 -660 Descending Cleveland Center
05:19PM 43.0514 -77.0467 84° East 236 272 12,500 -660 Descending Boston Center
05:20PM 43.0589 -76.9619 83° East 231 266 11,900 -420 Descending Boston Center
05:21PM 43.0619 -76.8825 87° East 216 249 11,700 -480 Descending Boston Center
05:22PM 43.0672 -76.8033 85° East 207 238 11,000 -1,140 Descending Boston Center
05:23PM 43.0744 -76.7214 83° East 217 250 9,500 -1,560 Descending Boston Center
05:24PM 43.0792 -76.6478 85° East 221 254 8,100 -1,620 Descending Boston Center
05:25PM 43.0825 -76.5569 87° East 219 252 6,300 -1,680 Descending Boston Center
05:26PM 43.0958 -76.4783 77° East 220 253 4,600 -1,380 Descending Boston Center
05:27PM 43.0986 -76.4017 87° East 201 231 3,600 -900 Descending Boston Center
05:28PM 43.1011 -76.3250 87° East 189 217 2,800 -720 Descending Boston Center
05:29PM 43.1033 -76.2625 87° East 166 191 2,200 -600 Descending Boston Center
05:30PM 43.1069 -76.2114 84° East 136 157 1,700 -600 Descending Boston Center
05:31PM 43.1064 -76.1658 91° East 110 127 1,000 -720 Descending Boston Center
05:33PM 43.1000 -76.1000 90° East  Level FlightAware Approximate
05:40PM 43.1112 -76.1063 90° East  Level Estimated
05:41PM 43.1112 -76.1063 90° East  Level Estimated
05:42PM 43.1112 -76.1063 90° East  Level Estimated
05:43PM 43.1112 -76.1063 90° East  Level Estimated
05:44PM 43.1112 -76.1063 90° East  Level Estimated
05:45PM 43.1112 -76.1063 90° East  Level Estimated
05:46PM 43.1112 -76.1063 90° East  Level Estimated